Swinomish — WC5223 — position and weather

sailwx.info

Track history (hours):
 
Tides and Currents Weather Stations Pressure Air Temp Water Temp Dewpoint Dewpoint Depression Visibility Wind Speed Wind Dir Waves Ship Positions

Swinomish

Owner: DUNLAP TOWING CO, LA CONNER, WA. More information available from US FCC via Universal Licensing System and Coast Guard Vessel Documentation Center.

Last reported at 2017-Jan-16 04:06 UTC. Time now 2017-Jan-17 19:13 UTC.
Position N 48°10' W 122°33'.

Length 15 m; draft 3.5 m.

Type: Tug. MMSI: 366972050.

Date/timePositionNaut miles runAvg speedWind from/ knotsBaromVisibWave heightAir tempDewpointWater temp
2017-Jan-16 04:06N 48°10' W 122°33'610.7
2017-Jan-16 03:31N 48°05' W 122°27'1111.2
2017-Jan-16 02:33N 47°59' W 122°14'1 0.6
2017-Jan-16 01:33N 47°59' W 122°13'1 0.9
2017-Jan-16 00:33N 47°58' W 122°15'2 2.0
2017-Jan-15 23:28N 48°00' W 122°17'2 2.3
2017-Jan-15 22:31N 48°02' W 122°19'2 2.4
2017-Jan-15 21:33N 48°03' W 122°22'3 2.5
2017-Jan-15 20:32N 48°04' W 122°25'12 2.2
2017-Jan-15 15:11N 48°15' W 122°33'1 1.7
2017-Jan-15 14:31N 48°16' W 122°32'1 1.3
2017-Jan-15 13:32N 48°17' W 122°31'1 0.6
2017-Jan-15 12:32N 48°17' W 122°30'1 0.9
2017-Jan-15 11:32N 48°18' W 122°30'1 1.3
2017-Jan-15 10:33N 48°19' W 122°31'3 2.9
2017-Jan-15 09:30N 48°22' W 122°34'4 1.8
2017-Jan-15 07:04N 48°24' W 122°39'1 0.9
2017-Jan-15 06:28N 48°24' W 122°39'0 0.5
2017-Jan-15 05:30N 48°25' W 122°40'1 0.6
2017-Jan-15 04:19N 48°25' W 122°41'1 1.4
2017-Jan-15 03:33N 48°26' W 122°42'2 2.0
2017-Jan-15 02:33N 48°28' W 122°44'2 2.1
2017-Jan-15 01:33N 48°30' W 122°44'1 1.4
2017-Jan-15 00:33N 48°31' W 122°45'1 1.1
2017-Jan-14 23:33N 48°31' W 122°47'1 1.0
2017-Jan-14 22:33N 48°32' W 122°48'2 1.6
2017-Jan-14 21:33N 48°31' W 122°50'6 5.8
2017-Jan-14 20:33N 48°31' W 122°42'0 0.4
2017-Jan-14 19:33N 48°31' W 122°42'6 6.2
2017-Jan-14 18:33N 48°31' W 122°51'0 0.0
2017-Jan-14 17:33N 48°31' W 122°51'0 0.0
2017-Jan-14 16:33N 48°31' W 122°51'0 0.1
2017-Jan-14 15:33N 48°31' W 122°51'0 0.1
2017-Jan-14 14:33N 48°31' W 122°51'0 0.0
2017-Jan-14 13:33N 48°31' W 122°51'0 0.0
2017-Jan-14 12:33N 48°31' W 122°51'0 0.0
2017-Jan-14 11:33N 48°31' W 122°51'0 0.0
2017-Jan-14 10:33N 48°31' W 122°51'0 0.0
2017-Jan-14 09:33N 48°31' W 122°51'0 0.0
2017-Jan-14 08:33N 48°31' W 122°51'0 0.1
2017-Jan-14 07:33N 48°31' W 122°51'0 0.0
2017-Jan-14 06:33N 48°31' W 122°51'0 0.0
2017-Jan-14 05:33N 48°31' W 122°51'0 0.0
2017-Jan-14 04:33N 48°31' W 122°51'0 0.0
2017-Jan-14 03:33N 48°31' W 122°51'0 0.1
2017-Jan-13 23:33N 48°31' W 122°51'2 1.6
2017-Jan-13 22:33N 48°33' W 122°51'1 1.5
2017-Jan-13 21:33N 48°34' W 122°52'2 1.6
2017-Jan-13 20:33N 48°35' W 122°54'2 1.7
2017-Jan-13 19:33N 48°35' W 122°56'2 2.0
2017-Jan-13 18:33N 48°36' W 122°59'2 1.8
2017-Jan-13 17:33N 48°36' W 123°02'3 2.3
2017-Jan-13 16:25N 48°39' W 123°01'2 2.6
2017-Jan-13 15:32N 48°41' W 122°60'3 2.3
2017-Jan-13 14:03N 48°44' W 122°59'3 1.8
2017-Jan-13 12:32N 48°45' W 123°04'3 3.1
2017-Jan-13 11:33N 48°44' W 123°08'2 2.3
2017-Jan-13 10:32N 48°45' W 123°11'1 1.0
2017-Jan-13 09:33N 48°46' W 123°12'1 1.0
2017-Jan-13 08:28N 48°47' W 123°13'1 0.1
2017-Jan-13 01:28N 48°47' W 123°15'0 0.0
2017-Jan-13 00:19N 48°47' W 123°15'0 0.0
2017-Jan-12 18:18N 48°47' W 123°15'0 0.1
2017-Jan-12 17:19N 48°47' W 123°15'0 0.0
2017-Jan-12 15:33N 48°47' W 123°14'0 0.0
2017-Jan-12 14:24N 48°47' W 123°14'0 0.0
2017-Jan-12 13:33N 48°47' W 123°14'0 0.0
2017-Jan-12 12:31N 48°47' W 123°14'0 0.0
2017-Jan-12 10:23N 48°47' W 123°14'0 0.0
2017-Jan-12 09:27N 48°47' W 123°14'16 1.3
2017-Jan-11 21:15N 48°57' W 123°33'4 1.8
2017-Jan-11 19:12N 48°60' W 123°37'1 1.5
2017-Jan-11 18:27N 49°01' W 123°38'2 1.8
2017-Jan-11 17:33N 49°02' W 123°40'3 1.7
2017-Jan-11 15:29N 49°05' W 123°42'2 1.7
2017-Jan-11 14:33N 49°07' W 123°43'0 0.2
2017-Jan-11 13:33N 49°07' W 123°43'0 0.0
2017-Jan-11 12:30N 49°07' W 123°43'0 0.0
2017-Jan-11 11:31N 49°07' W 123°43'0 0.0
2017-Jan-11 10:33N 49°07' W 123°43'0 0.0
2017-Jan-11 09:29N 49°07' W 123°43'0 0.0
2017-Jan-11 08:31N 49°07' W 123°43'0 0.0
2017-Jan-11 07:33N 49°07' W 123°43'0 0.0
2017-Jan-11 06:33N 49°07' W 123°43'0 0.0
2017-Jan-11 05:31N 49°07' W 123°43'0 0.0
2017-Jan-11 04:23N 49°07' W 123°43'0 0.0
2017-Jan-11 03:33N 49°07' W 123°43'0 0.0
2017-Jan-11 02:32N 49°07' W 123°43'0 0.0
2017-Jan-11 01:32N 49°07' W 123°43'0 0.0
2017-Jan-11 00:22N 49°07' W 123°43'0 0.0
2017-Jan-10 23:32N 49°07' W 123°43'0 0.0
2017-Jan-10 22:33N 49°07' W 123°43'0 0.0
2017-Jan-10 21:33N 49°07' W 123°43'0 0.0
2017-Jan-10 20:33N 49°07' W 123°43'0 0.0
2017-Jan-10 19:32N 49°07' W 123°43'0 0.0
2017-Jan-10 18:33N 49°07' W 123°43'0 0.0
2017-Jan-10 17:34N 49°07' W 123°43'0 0.0
2017-Jan-10 16:33N 49°07' W 123°43'0 0.0
2017-Jan-10 15:32N 49°07' W 123°43'0 0.0
2017-Jan-10 14:29N 49°07' W 123°43'0 0.0
2017-Jan-10 13:25N 49°07' W 123°43'0 0.0
2017-Jan-10 12:29N 49°07' W 123°43'0 0.0
2017-Jan-10 11:19N 49°07' W 123°43'0 0.0
2017-Jan-10 10:32N 49°07' W 123°43'0 0.0
2017-Jan-10 09:31N 49°07' W 123°43'0 0.0
2017-Jan-10 08:33N 49°07' W 123°43'0 0.0
2017-Jan-10 07:30N 49°07' W 123°43'0 0.0
2017-Jan-10 06:31N 49°07' W 123°43'0 0.0
2017-Jan-10 05:32N 49°07' W 123°43'0 0.0
2017-Jan-10 04:33N 49°07' W 123°43'0 0.0
2017-Jan-10 03:33N 49°07' W 123°43'0 0.0
2017-Jan-10 02:32N 49°07' W 123°43'0 0.0
2017-Jan-10 01:27N 49°07' W 123°43'0 0.0
2017-Jan-10 00:30N 49°07' W 123°43'0 0.0
2017-Jan-09 23:30N 49°07' W 123°43'0 0.1
2017-Jan-09 22:20N 49°07' W 123°43'0 0.1
2017-Jan-09 21:30N 49°07' W 123°43'0 0.1
2017-Jan-09 20:33N 49°07' W 123°43'0 0.3
2017-Jan-09 19:32N 49°07' W 123°43'4 3.9
2017-Jan-09 18:24N 49°03' W 123°40'21 3.5
2017-Jan-09 12:16N 48°49' W 123°15'2 3.0
2017-Jan-09 11:33N 48°47' W 123°13'3 3.0
2017-Jan-09 10:33N 48°45' W 123°10'3 3.3
2017-Jan-09 09:33N 48°42' W 123°09'4 3.8
2017-Jan-09 08:33N 48°39' W 123°05'4 4.0
2017-Jan-09 07:32N 48°36' W 123°01'4 4.1
2017-Jan-09 06:33N 48°35' W 122°55'4 4.0
2017-Jan-09 05:33N 48°33' W 122°50'4 3.7
2017-Jan-09 04:33N 48°31' W 122°46'3 2.6
2017-Jan-09 03:33N 48°29' W 122°44'2 2.1
2017-Jan-09 02:31N 48°27' W 122°43'4 4.4
2017-Jan-09 01:31N 48°25' W 122°37'15 2.1
2017-Jan-08 18:06N 48°10' W 122°33'1 1.8
2017-Jan-08 17:33N 48°09' W 122°32'5 2.3
2017-Jan-08 15:29N 48°05' W 122°27'4 4.0
2017-Jan-08 14:32N 48°03' W 122°23'4 4.0
2017-Jan-08 13:33N 48°01' W 122°18'4 3.5
2017-Jan-08 12:33N 47°59' W 122°14'0 0.5
2017-Jan-08 11:33N 47°59' W 122°13'8 7.7
2017-Jan-08 10:33N 48°03' W 122°23'14 9.9
2017-Jan-08 09:06N 48°16' W 122°32'6 7.7
2017-Jan-08 08:20N 48°22' W 122°32'3 1.3
2017-Jan-08 06:14N 48°24' W 122°30'0 0.0
2017-Jan-08 05:33N 48°24' W 122°30'0 0.0
2017-Jan-08 04:33N 48°24' W 122°30'0 0.0
2017-Jan-08 03:32N 48°24' W 122°30'0 0.0
2017-Jan-08 02:33N 48°24' W 122°30'0 0.0
2017-Jan-08 01:33N 48°24' W 122°30'0 0.0
2017-Jan-08 00:33N 48°24' W 122°30'0 0.0
2017-Jan-07 23:33N 48°24' W 122°30'0 0.0
2017-Jan-07 22:32N 48°24' W 122°30'19 3.8
2017-Jan-07 17:33N 48°05' W 122°27'7 5.8
2017-Jan-07 16:25N 48°01' W 122°18'4 4.7
2017-Jan-07 15:33N 47°59' W 122°14'0 0.4
2017-Jan-07 14:33N 47°59' W 122°13'0 0.2
2017-Jan-07 13:33N 47°59' W 122°13'11 1.4
2017-Jan-07 05:31N 47°50' W 122°24'6 6.1
2017-Jan-07 04:33N 47°44' W 122°25'6 6.0
2017-Jan-07 03:33N 47°38' W 122°28'6 5.9
2017-Jan-07 02:33N 47°33' W 122°28'7 7.0
2017-Jan-07 01:33N 47°26' W 122°31'8 7.4
2017-Jan-07 00:25N 47°18' W 122°32'7 0.5
2017-Jan-06 10:26N 47°12' W 122°38'1 1.0
2017-Jan-06 09:28N 47°13' W 122°39'1 0.8
2017-Jan-06 08:31N 47°14' W 122°39'1 0.8
2017-Jan-06 07:30N 47°14' W 122°40'  
Track history (hours):
 
Tides and Currents Weather Stations Pressure Air Temp Water Temp Dewpoint Dewpoint Depression Visibility Wind Speed Wind Dir Waves Ship Positions

Swinomish

Owner: DUNLAP TOWING CO, LA CONNER, WA. More information available from US FCC via Universal Licensing System and Coast Guard Vessel Documentation Center.

Last reported at 2017-Jan-16 04:06 UTC. Time now 2017-Jan-17 19:13 UTC.
Position N 48°10' W 122°33'.

Length 15 m; draft 3.5 m.

Type: Tug. MMSI: 366972050.

Date/timePositionNaut miles runAvg speedWind from/ knotsBaromVisibWave heightAir tempDewpointWater temp
2017-Jan-16 04:06N 48°10' W 122°33'610.7
2017-Jan-16 03:31N 48°05' W 122°27'1111.2
2017-Jan-16 02:33N 47°59' W 122°14'1 0.6
2017-Jan-16 01:33N 47°59' W 122°13'1 0.9
2017-Jan-16 00:33N 47°58' W 122°15'2 2.0
2017-Jan-15 23:28N 48°00' W 122°17'2 2.3
2017-Jan-15 22:31N 48°02' W 122°19'2 2.4
2017-Jan-15 21:33N 48°03' W 122°22'3 2.5
2017-Jan-15 20:32N 48°04' W 122°25'12 2.2
2017-Jan-15 15:11N 48°15' W 122°33'1 1.7
2017-Jan-15 14:31N 48°16' W 122°32'1 1.3
2017-Jan-15 13:32N 48°17' W 122°31'1 0.6
2017-Jan-15 12:32N 48°17' W 122°30'1 0.9
2017-Jan-15 11:32N 48°18' W 122°30'1 1.3
2017-Jan-15 10:33N 48°19' W 122°31'3 2.9
2017-Jan-15 09:30N 48°22' W 122°34'4 1.8
2017-Jan-15 07:04N 48°24' W 122°39'1 0.9
2017-Jan-15 06:28N 48°24' W 122°39'0 0.5
2017-Jan-15 05:30N 48°25' W 122°40'1 0.6
2017-Jan-15 04:19N 48°25' W 122°41'1 1.4
2017-Jan-15 03:33N 48°26' W 122°42'2 2.0
2017-Jan-15 02:33N 48°28' W 122°44'2 2.1
2017-Jan-15 01:33N 48°30' W 122°44'1 1.4
2017-Jan-15 00:33N 48°31' W 122°45'1 1.1
2017-Jan-14 23:33N 48°31' W 122°47'1 1.0
2017-Jan-14 22:33N 48°32' W 122°48'2 1.6
2017-Jan-14 21:33N 48°31' W 122°50'6 5.8
2017-Jan-14 20:33N 48°31' W 122°42'0 0.4
2017-Jan-14 19:33N 48°31' W 122°42'6 6.2
2017-Jan-14 18:33N 48°31' W 122°51'0 0.0
2017-Jan-14 17:33N 48°31' W 122°51'0 0.0
2017-Jan-14 16:33N 48°31' W 122°51'0 0.1
2017-Jan-14 15:33N 48°31' W 122°51'0 0.1
2017-Jan-14 14:33N 48°31' W 122°51'0 0.0
2017-Jan-14 13:33N 48°31' W 122°51'0 0.0
2017-Jan-14 12:33N 48°31' W 122°51'0 0.0
2017-Jan-14 11:33N 48°31' W 122°51'0 0.0
2017-Jan-14 10:33N 48°31' W 122°51'0 0.0
2017-Jan-14 09:33N 48°31' W 122°51'0 0.0
2017-Jan-14 08:33N 48°31' W 122°51'0 0.1
2017-Jan-14 07:33N 48°31' W 122°51'0 0.0
2017-Jan-14 06:33N 48°31' W 122°51'0 0.0
2017-Jan-14 05:33N 48°31' W 122°51'0 0.0
2017-Jan-14 04:33N 48°31' W 122°51'0 0.0
2017-Jan-14 03:33N 48°31' W 122°51'0 0.1
2017-Jan-13 23:33N 48°31' W 122°51'2 1.6
2017-Jan-13 22:33N 48°33' W 122°51'1 1.5
2017-Jan-13 21:33N 48°34' W 122°52'2 1.6
2017-Jan-13 20:33N 48°35' W 122°54'2 1.7
2017-Jan-13 19:33N 48°35' W 122°56'2 2.0
2017-Jan-13 18:33N 48°36' W 122°59'2 1.8
2017-Jan-13 17:33N 48°36' W 123°02'3 2.3
2017-Jan-13 16:25N 48°39' W 123°01'2 2.6
2017-Jan-13 15:32N 48°41' W 122°60'3 2.3
2017-Jan-13 14:03N 48°44' W 122°59'3 1.8
2017-Jan-13 12:32N 48°45' W 123°04'3 3.1
2017-Jan-13 11:33N 48°44' W 123°08'2 2.3
2017-Jan-13 10:32N 48°45' W 123°11'1 1.0
2017-Jan-13 09:33N 48°46' W 123°12'1 1.0
2017-Jan-13 08:28N 48°47' W 123°13'1 0.1
2017-Jan-13 01:28N 48°47' W 123°15'0 0.0
2017-Jan-13 00:19N 48°47' W 123°15'0 0.0
2017-Jan-12 18:18N 48°47' W 123°15'0 0.1
2017-Jan-12 17:19N 48°47' W 123°15'0 0.0
2017-Jan-12 15:33N 48°47' W 123°14'0 0.0
2017-Jan-12 14:24N 48°47' W 123°14'0 0.0
2017-Jan-12 13:33N 48°47' W 123°14'0 0.0
2017-Jan-12 12:31N 48°47' W 123°14'0 0.0
2017-Jan-12 10:23N 48°47' W 123°14'0 0.0
2017-Jan-12 09:27N 48°47' W 123°14'16 1.3
2017-Jan-11 21:15N 48°57' W 123°33'4 1.8
2017-Jan-11 19:12N 48°60' W 123°37'1 1.5
2017-Jan-11 18:27N 49°01' W 123°38'2 1.8
2017-Jan-11 17:33N 49°02' W 123°40'3 1.7
2017-Jan-11 15:29N 49°05' W 123°42'2 1.7
2017-Jan-11 14:33N 49°07' W 123°43'0 0.2
2017-Jan-11 13:33N 49°07' W 123°43'0 0.0
2017-Jan-11 12:30N 49°07' W 123°43'0 0.0
2017-Jan-11 11:31N 49°07' W 123°43'0 0.0
2017-Jan-11 10:33N 49°07' W 123°43'0 0.0
2017-Jan-11 09:29N 49°07' W 123°43'0 0.0
2017-Jan-11 08:31N 49°07' W 123°43'0 0.0
2017-Jan-11 07:33N 49°07' W 123°43'0 0.0
2017-Jan-11 06:33N 49°07' W 123°43'0 0.0
2017-Jan-11 05:31N 49°07' W 123°43'0 0.0
2017-Jan-11 04:23N 49°07' W 123°43'0 0.0
2017-Jan-11 03:33N 49°07' W 123°43'0 0.0
2017-Jan-11 02:32N 49°07' W 123°43'0 0.0
2017-Jan-11 01:32N 49°07' W 123°43'0 0.0
2017-Jan-11 00:22N 49°07' W 123°43'0 0.0
2017-Jan-10 23:32N 49°07' W 123°43'0 0.0
2017-Jan-10 22:33N 49°07' W 123°43'0 0.0
2017-Jan-10 21:33N 49°07' W 123°43'0 0.0
2017-Jan-10 20:33N 49°07' W 123°43'0 0.0
2017-Jan-10 19:32N 49°07' W 123°43'0 0.0
2017-Jan-10 18:33N 49°07' W 123°43'0 0.0
2017-Jan-10 17:34N 49°07' W 123°43'0 0.0
2017-Jan-10 16:33N 49°07' W 123°43'0 0.0
2017-Jan-10 15:32N 49°07' W 123°43'0 0.0
2017-Jan-10 14:29N 49°07' W 123°43'0 0.0
2017-Jan-10 13:25N 49°07' W 123°43'0 0.0
2017-Jan-10 12:29N 49°07' W 123°43'0 0.0
2017-Jan-10 11:19N 49°07' W 123°43'0 0.0
2017-Jan-10 10:32N 49°07' W 123°43'0 0.0
2017-Jan-10 09:31N 49°07' W 123°43'0 0.0
2017-Jan-10 08:33N 49°07' W 123°43'0 0.0
2017-Jan-10 07:30N 49°07' W 123°43'0 0.0
2017-Jan-10 06:31N 49°07' W 123°43'0 0.0
2017-Jan-10 05:32N 49°07' W 123°43'0 0.0
2017-Jan-10 04:33N 49°07' W 123°43'0 0.0
2017-Jan-10 03:33N 49°07' W 123°43'0 0.0
2017-Jan-10 02:32N 49°07' W 123°43'0 0.0
2017-Jan-10 01:27N 49°07' W 123°43'0 0.0
2017-Jan-10 00:30N 49°07' W 123°43'0 0.0
2017-Jan-09 23:30N 49°07' W 123°43'0 0.1
2017-Jan-09 22:20N 49°07' W 123°43'0 0.1
2017-Jan-09 21:30N 49°07' W 123°43'0 0.1
2017-Jan-09 20:33N 49°07' W 123°43'0 0.3
2017-Jan-09 19:32N 49°07' W 123°43'4 3.9
2017-Jan-09 18:24N 49°03' W 123°40'21 3.5
2017-Jan-09 12:16N 48°49' W 123°15'2 3.0
2017-Jan-09 11:33N 48°47' W 123°13'3 3.0
2017-Jan-09 10:33N 48°45' W 123°10'3 3.3
2017-Jan-09 09:33N 48°42' W 123°09'4 3.8
2017-Jan-09 08:33N 48°39' W 123°05'4 4.0
2017-Jan-09 07:32N 48°36' W 123°01'4 4.1
2017-Jan-09 06:33N 48°35' W 122°55'4 4.0
2017-Jan-09 05:33N 48°33' W 122°50'4 3.7
2017-Jan-09 04:33N 48°31' W 122°46'3 2.6
2017-Jan-09 03:33N 48°29' W 122°44'2 2.1
2017-Jan-09 02:31N 48°27' W 122°43'4 4.4
2017-Jan-09 01:31N 48°25' W 122°37'15 2.1
2017-Jan-08 18:06N 48°10' W 122°33'1 1.8
2017-Jan-08 17:33N 48°09' W 122°32'5 2.3
2017-Jan-08 15:29N 48°05' W 122°27'4 4.0
2017-Jan-08 14:32N 48°03' W 122°23'4 4.0
2017-Jan-08 13:33N 48°01' W 122°18'4 3.5
2017-Jan-08 12:33N 47°59' W 122°14'0 0.5
2017-Jan-08 11:33N 47°59' W 122°13'8 7.7
2017-Jan-08 10:33N 48°03' W 122°23'14 9.9
2017-Jan-08 09:06N 48°16' W 122°32'6 7.7
2017-Jan-08 08:20N 48°22' W 122°32'3 1.3
2017-Jan-08 06:14N 48°24' W 122°30'0 0.0
2017-Jan-08 05:33N 48°24' W 122°30'0 0.0
2017-Jan-08 04:33N 48°24' W 122°30'0 0.0
2017-Jan-08 03:32N 48°24' W 122°30'0 0.0
2017-Jan-08 02:33N 48°24' W 122°30'0 0.0
2017-Jan-08 01:33N 48°24' W 122°30'0 0.0
2017-Jan-08 00:33N 48°24' W 122°30'0 0.0
2017-Jan-07 23:33N 48°24' W 122°30'0 0.0
2017-Jan-07 22:32N 48°24' W 122°30'19 3.8
2017-Jan-07 17:33N 48°05' W 122°27'7 5.8
2017-Jan-07 16:25N 48°01' W 122°18'4 4.7
2017-Jan-07 15:33N 47°59' W 122°14'0 0.4
2017-Jan-07 14:33N 47°59' W 122°13'0 0.2
2017-Jan-07 13:33N 47°59' W 122°13'11 1.4
2017-Jan-07 05:31N 47°50' W 122°24'6 6.1
2017-Jan-07 04:33N 47°44' W 122°25'6 6.0
2017-Jan-07 03:33N 47°38' W 122°28'6 5.9
2017-Jan-07 02:33N 47°33' W 122°28'7 7.0
2017-Jan-07 01:33N 47°26' W 122°31'8 7.4
2017-Jan-07 00:25N 47°18' W 122°32'7 0.5
2017-Jan-06 10:26N 47°12' W 122°38'1 1.0
2017-Jan-06 09:28N 47°13' W 122°39'1 0.8
2017-Jan-06 08:31N 47°14' W 122°39'1 0.8
2017-Jan-06 07:30N 47°14' W 122°40'  

Dump ship's entire track history